createdAt,value
2017-09-19T00:00:09.650Z,0
2017-09-19T00:00:50.216Z,0
2017-09-19T00:01:30.804Z,0
2017-09-19T00:02:11.368Z,0
2017-09-19T00:02:51.958Z,0
2017-09-19T00:03:32.543Z,0
2017-09-19T00:04:13.119Z,0
2017-09-19T00:04:53.697Z,0
2017-09-19T00:05:34.286Z,0
2017-09-19T00:06:14.857Z,0
2017-09-19T00:06:55.431Z,0
2017-09-19T00:07:36.017Z,0
2017-09-19T00:08:16.599Z,0
2017-09-19T00:08:57.179Z,0
2017-09-19T00:09:37.756Z,0
2017-09-19T00:10:18.331Z,0
2017-09-19T00:10:58.914Z,0
2017-09-19T00:11:39.495Z,0
2017-09-19T00:12:20.090Z,0
2017-09-19T00:13:00.659Z,0
2017-09-19T00:13:41.239Z,0
2017-09-19T00:14:21.820Z,0
2017-09-19T00:15:02.407Z,0
2017-09-19T00:15:42.976Z,0
2017-09-19T00:16:23.556Z,0
2017-09-19T00:17:04.126Z,0
2017-09-19T00:17:44.713Z,0
2017-09-19T00:18:25.285Z,0
2017-09-19T00:19:05.868Z,0
2017-09-19T00:19:46.441Z,0
2017-09-19T00:20:27.027Z,0
2017-09-19T00:21:07.608Z,0
2017-09-19T00:23:25.560Z,0
2017-09-19T00:24:06.143Z,0
2017-09-19T00:24:46.720Z,0
2017-09-19T00:25:27.298Z,0
2017-09-19T00:26:07.872Z,0
2017-09-19T00:26:48.455Z,0
2017-09-19T00:27:29.037Z,0
2017-09-19T00:28:09.612Z,0
2017-09-19T00:28:50.177Z,0
2017-09-19T00:29:30.750Z,0
2017-09-19T00:30:11.322Z,0
2017-09-19T00:30:51.902Z,0
2017-09-19T00:31:32.473Z,0
2017-09-19T00:32:13.053Z,0
2017-09-19T00:32:53.640Z,0
2017-09-19T00:33:34.217Z,0
2017-09-19T00:34:14.789Z,0
2017-09-19T00:34:55.363Z,0
2017-09-19T00:35:35.944Z,0
2017-09-19T00:36:16.521Z,0
2017-09-19T00:36:57.097Z,0
2017-09-19T00:37:37.696Z,0
2017-09-19T00:38:18.263Z,0
2017-09-19T00:38:58.835Z,0
2017-09-19T00:39:39.419Z,0
2017-09-19T00:40:19.996Z,0
2017-09-19T00:41:00.579Z,0
2017-09-19T00:41:41.154Z,0
2017-09-19T00:42:21.732Z,0
2017-09-19T00:43:02.314Z,0
2017-09-19T00:43:42.890Z,0
2017-09-19T00:44:23.485Z,0
2017-09-19T00:45:04.069Z,0
2017-09-19T00:45:44.638Z,0
2017-09-19T00:46:25.215Z,0
2017-09-19T00:47:05.794Z,0
2017-09-19T00:47:46.373Z,0
2017-09-19T00:48:26.950Z,0
2017-09-19T00:49:07.527Z,0
2017-09-19T00:49:48.110Z,0
2017-09-19T00:50:28.689Z,0
2017-09-19T00:51:09.268Z,0
2017-09-19T00:51:49.850Z,0
2017-09-19T00:52:30.428Z,0
2017-09-19T00:53:11.005Z,0
2017-09-19T00:53:51.585Z,0
2017-09-19T00:54:32.167Z,0
2017-09-19T00:55:12.744Z,0
2017-09-19T00:55:53.319Z,0
2017-09-19T00:56:33.904Z,0
2017-09-19T00:57:14.480Z,0
2017-09-19T00:57:55.057Z,0
2017-09-19T00:58:35.655Z,0
2017-09-19T00:59:16.227Z,0
2017-09-19T00:59:56.800Z,0
2017-09-19T01:00:37.380Z,0
2017-09-19T01:01:17.949Z,0
2017-09-19T01:01:58.539Z,0
2017-09-19T01:02:39.110Z,0
2017-09-19T01:03:19.686Z,0
2017-09-19T01:04:00.272Z,0
2017-09-19T01:04:40.854Z,0
2017-09-19T01:05:21.424Z,0
2017-09-19T01:06:02.005Z,0
2017-09-19T01:06:42.587Z,0
2017-09-19T01:07:23.171Z,0
2017-09-19T01:08:03.761Z,0
2017-09-19T01:08:44.333Z,0
2017-09-19T01:09:24.906Z,0
2017-09-19T01:10:05.496Z,0
2017-09-19T01:10:46.086Z,0
2017-09-19T01:11:26.656Z,0
2017-09-19T01:12:07.227Z,0
2017-09-19T01:12:47.810Z,0
2017-09-19T01:13:28.394Z,0
2017-09-19T01:14:08.971Z,0
2017-09-19T01:14:49.545Z,0
2017-09-19T01:15:30.130Z,0
2017-09-19T01:16:10.698Z,0
2017-09-19T01:16:51.290Z,0
2017-09-19T01:17:31.861Z,0
2017-09-19T01:18:12.446Z,0
2017-09-19T01:18:53.025Z,0
2017-09-19T01:19:33.602Z,0
2017-09-19T01:20:14.183Z,0
2017-09-19T01:20:54.765Z,0
2017-09-19T01:21:35.341Z,0
2017-09-19T01:22:15.912Z,0
2017-09-19T01:22:56.491Z,0
2017-09-19T01:23:37.074Z,0
2017-09-19T01:24:17.646Z,0
2017-09-19T01:24:58.228Z,0
2017-09-19T01:25:38.802Z,0
2017-09-19T01:26:19.372Z,0
2017-09-19T01:26:59.957Z,0
2017-09-19T01:27:40.537Z,0
2017-09-19T01:28:21.122Z,0
2017-09-19T01:29:01.697Z,0
2017-09-19T01:29:42.280Z,0
2017-09-19T01:30:22.882Z,0
2017-09-19T01:31:03.443Z,0
2017-09-19T01:31:44.028Z,0
2017-09-19T01:32:24.595Z,0
2017-09-19T01:33:05.182Z,0
2017-09-19T01:33:45.765Z,0
2017-09-19T01:34:26.347Z,0
2017-09-19T01:35:06.932Z,0
2017-09-19T01:35:47.513Z,0
2017-09-19T01:36:28.089Z,0
2017-09-19T01:37:08.671Z,0
2017-09-19T01:37:49.245Z,0
2017-09-19T01:38:29.827Z,0
2017-09-19T01:39:10.399Z,0
2017-09-19T01:39:50.967Z,0
2017-09-19T01:40:31.551Z,0
2017-09-19T01:41:12.126Z,0
2017-09-19T01:41:52.714Z,0
2017-09-19T01:42:33.274Z,0
2017-09-19T01:43:13.854Z,0
2017-09-19T01:43:54.433Z,0
2017-09-19T01:44:34.999Z,0
2017-09-19T01:45:15.586Z,0
2017-09-19T01:45:56.171Z,0
2017-09-19T01:46:36.747Z,0
2017-09-19T01:47:17.317Z,0
2017-09-19T01:47:57.909Z,0
2017-09-19T01:48:38.487Z,0
2017-09-19T01:49:19.069Z,0
2017-09-19T01:49:59.646Z,0
2017-09-19T01:50:40.233Z,0
2017-09-19T01:51:20.809Z,0
2017-09-19T01:52:01.389Z,0
2017-09-19T01:52:41.971Z,0
2017-09-19T01:53:22.550Z,0
2017-09-19T01:54:03.130Z,0
2017-09-19T01:54:43.704Z,0
2017-09-19T01:55:24.281Z,0
2017-09-19T01:56:04.857Z,0
2017-09-19T01:56:45.440Z,0
2017-09-19T01:57:26.016Z,0
2017-09-19T01:58:06.603Z,0
2017-09-19T01:58:47.175Z,0
2017-09-19T01:59:27.759Z,0
2017-09-19T02:00:08.340Z,0
2017-09-19T02:00:48.919Z,0
2017-09-19T02:01:29.485Z,0
2017-09-19T02:02:10.061Z,0
2017-09-19T02:02:50.624Z,0
2017-09-19T02:03:31.205Z,0
2017-09-19T02:04:11.783Z,0
2017-09-19T02:04:52.358Z,0
2017-09-19T02:05:32.945Z,0
2017-09-19T02:06:13.519Z,0
2017-09-19T02:06:54.101Z,0
2017-09-19T02:07:34.677Z,0
2017-09-19T02:08:15.259Z,0
2017-09-19T02:08:55.830Z,0
2017-09-19T02:09:36.417Z,0
2017-09-19T02:10:16.991Z,0
2017-09-19T02:10:57.568Z,0
2017-09-19T02:11:38.148Z,0
2017-09-19T02:12:18.724Z,0
2017-09-19T02:12:59.294Z,0
2017-09-19T02:13:39.880Z,0
2017-09-19T02:14:20.459Z,0
2017-09-19T02:15:01.035Z,0
2017-09-19T02:15:41.620Z,0
2017-09-19T02:16:22.196Z,0
2017-09-19T02:17:02.773Z,0
2017-09-19T02:17:43.351Z,0
2017-09-19T02:18:23.924Z,0
2017-09-19T02:19:04.484Z,0
2017-09-19T02:19:45.054Z,0
2017-09-19T02:20:25.624Z,0
2017-09-19T02:21:06.199Z,0
2017-09-19T02:21:46.777Z,0
2017-09-19T02:22:27.353Z,0
2017-09-19T02:23:07.934Z,0
2017-09-19T02:23:48.506Z,0
2017-09-19T02:24:29.080Z,0
2017-09-19T02:25:09.653Z,0
2017-09-19T02:25:50.233Z,0
2017-09-19T02:26:30.798Z,0
2017-09-19T02:27:11.380Z,0
2017-09-19T02:27:51.963Z,0
2017-09-19T02:28:32.546Z,0
2017-09-19T02:29:13.115Z,0
2017-09-19T02:29:53.696Z,0
2017-09-19T02:30:34.274Z,0
2017-09-19T02:31:14.847Z,0
2017-09-19T02:31:55.423Z,0
2017-09-19T02:32:35.998Z,0
2017-09-19T02:33:16.583Z,0
2017-09-19T02:33:57.160Z,0
2017-09-19T02:34:37.736Z,0
2017-09-19T02:35:18.319Z,0
2017-09-19T02:35:58.884Z,0
2017-09-19T02:36:39.460Z,0
2017-09-19T02:37:20.030Z,0
2017-09-19T02:38:00.617Z,0
2017-09-19T02:38:41.191Z,0
2017-09-19T02:39:21.769Z,0
2017-09-19T02:40:02.348Z,0
2017-09-19T02:40:42.915Z,0
2017-09-19T02:41:23.503Z,0
2017-09-19T02:42:04.080Z,0
2017-09-19T02:42:44.655Z,0
2017-09-19T02:43:25.236Z,0
2017-09-19T02:44:05.816Z,0
2017-09-19T02:44:46.397Z,0
2017-09-19T02:45:26.987Z,0
2017-09-19T02:46:07.570Z,0
2017-09-19T02:46:48.168Z,0
2017-09-19T02:47:28.728Z,0
2017-09-19T02:48:09.309Z,0
2017-09-19T02:48:49.878Z,0
2017-09-19T02:49:30.452Z,0
2017-09-19T02:50:11.027Z,0
2017-09-19T02:50:51.613Z,0
2017-09-19T02:51:32.192Z,0
2017-09-19T02:52:12.764Z,0
2017-09-19T02:52:53.341Z,0
2017-09-19T02:53:33.920Z,0
2017-09-19T02:54:14.493Z,0
2017-09-19T02:54:55.058Z,0
2017-09-19T02:55:35.641Z,0
2017-09-19T02:56:16.227Z,0
2017-09-19T02:56:56.805Z,0
2017-09-19T02:57:37.408Z,0
2017-09-19T02:58:17.970Z,0
2017-09-19T02:58:58.545Z,0
2017-09-19T02:59:39.103Z,0
2017-09-19T03:00:19.675Z,0
2017-09-19T03:01:00.243Z,0
2017-09-19T03:01:40.831Z,0
2017-09-19T03:02:21.408Z,0
2017-09-19T03:03:01.982Z,0
2017-09-19T03:03:42.561Z,0
2017-09-19T03:04:23.133Z,0
2017-09-19T03:05:03.708Z,0
2017-09-19T03:05:44.268Z,0
2017-09-19T03:06:24.857Z,0
2017-09-19T03:07:05.434Z,0
2017-09-19T03:07:46.014Z,0
2017-09-19T03:08:26.584Z,0
2017-09-19T03:09:07.155Z,0
2017-09-19T03:09:47.727Z,0
2017-09-19T03:10:28.302Z,0
2017-09-19T03:11:08.877Z,0
2017-09-19T03:11:50.067Z,0
2017-09-19T03:12:30.645Z,0
2017-09-19T03:13:16.932Z,0
2017-09-19T03:13:58.088Z,0
2017-09-19T03:14:41.224Z,0
2017-09-19T03:15:21.803Z,0
2017-09-19T03:16:02.571Z,0
2017-09-19T03:16:43.124Z,0
2017-09-19T03:17:23.696Z,0
2017-09-19T03:18:04.337Z,0
2017-09-19T03:18:44.966Z,0
2017-09-19T03:19:25.702Z,0
2017-09-19T03:20:06.279Z,0
2017-09-19T03:20:46.902Z,0
2017-09-19T03:21:27.482Z,0
2017-09-19T03:22:08.186Z,0
2017-09-19T03:22:48.799Z,0
2017-09-19T03:23:29.415Z,0
2017-09-19T03:24:10.023Z,0
2017-09-19T03:24:50.600Z,0
2017-09-19T03:25:31.307Z,0
2017-09-19T03:26:11.889Z,0
2017-09-19T03:26:52.558Z,0
2017-09-19T03:27:33.207Z,0
2017-09-19T03:28:13.787Z,0
2017-09-19T03:28:54.410Z,0
2017-09-19T03:29:34.988Z,0
2017-09-19T03:30:15.613Z,0
2017-09-19T03:30:56.248Z,0
2017-09-19T03:31:36.865Z,0
2017-09-19T03:32:17.558Z,0
2017-09-19T03:32:58.297Z,0
2017-09-19T03:33:38.888Z,0
2017-09-19T03:34:19.494Z,0
2017-09-19T03:35:00.114Z,0
2017-09-19T03:35:40.796Z,0
2017-09-19T03:36:21.533Z,0
2017-09-19T03:37:02.196Z,0
2017-09-19T03:37:42.752Z,0
2017-09-19T03:38:23.330Z,0
2017-09-19T03:39:03.957Z,0
2017-09-19T03:39:44.659Z,0
2017-09-19T03:40:25.337Z,0
2017-09-19T03:41:05.977Z,0
2017-09-19T03:41:46.566Z,0
2017-09-19T03:42:27.450Z,0
2017-09-19T03:43:07.794Z,0
2017-09-19T03:43:48.670Z,0
2017-09-19T03:44:29.384Z,0
2017-09-19T03:45:10.065Z,0
2017-09-19T03:45:50.642Z,0
2017-09-19T03:46:31.421Z,0
2017-09-19T03:47:12.089Z,0
2017-09-19T03:47:52.786Z,0
2017-09-19T03:48:33.443Z,0
2017-09-19T03:49:14.123Z,0
2017-09-19T03:49:54.836Z,0
2017-09-19T03:50:36.201Z,0
2017-09-19T03:51:16.793Z,0
2017-09-19T03:51:57.385Z,0
2017-09-19T03:52:37.963Z,0
2017-09-19T03:53:18.534Z,0
2017-09-19T03:53:59.160Z,0
2017-09-19T03:54:39.727Z,0
2017-09-19T03:55:20.308Z,0
2017-09-19T03:56:01.041Z,0
2017-09-19T03:56:41.628Z,0
2017-09-19T03:57:22.216Z,0
2017-09-19T03:58:02.796Z,0
2017-09-19T03:58:43.366Z,0
2017-09-19T03:59:23.956Z,0
2017-09-19T04:00:04.527Z,0
2017-09-19T04:00:45.106Z,0
2017-09-19T04:01:25.684Z,0
2017-09-19T04:02:06.263Z,0
2017-09-19T04:02:46.843Z,0
2017-09-19T04:03:27.426Z,0
2017-09-19T04:04:08.003Z,0
2017-09-19T04:04:48.578Z,0
2017-09-19T04:05:29.159Z,0
2017-09-19T04:06:09.726Z,0
2017-09-19T04:08:27.676Z,0
2017-09-19T04:09:08.252Z,0
2017-09-19T04:09:48.820Z,0
2017-09-19T04:10:29.388Z,0
2017-09-19T04:11:10.003Z,0
2017-09-19T04:11:50.557Z,0
2017-09-19T04:12:31.131Z,0
2017-09-19T04:13:11.715Z,0
2017-09-19T04:13:52.298Z,0
2017-09-19T04:14:32.863Z,0
2017-09-19T04:15:13.435Z,0
2017-09-19T04:15:54.016Z,0
2017-09-19T04:16:34.612Z,0
2017-09-19T04:17:15.172Z,0
2017-09-19T04:17:55.750Z,0
2017-09-19T04:18:36.305Z,0
2017-09-19T04:19:16.892Z,0
2017-09-19T04:19:57.469Z,0
2017-09-19T04:20:38.056Z,0
2017-09-19T04:21:18.621Z,0
2017-09-19T04:21:59.212Z,0
2017-09-19T04:22:39.769Z,0
2017-09-19T04:23:20.341Z,0
2017-09-19T04:24:00.898Z,0
2017-09-19T04:24:41.475Z,0
2017-09-19T04:25:22.057Z,0
2017-09-19T04:26:02.630Z,0
2017-09-19T04:26:43.203Z,0
2017-09-19T04:27:23.783Z,0
2017-09-19T04:28:04.357Z,0
2017-09-19T04:28:44.935Z,0
2017-09-19T04:29:25.508Z,0
2017-09-19T04:30:06.090Z,0
2017-09-19T04:30:46.674Z,0
2017-09-19T04:31:27.261Z,0
2017-09-19T04:32:07.839Z,0
2017-09-19T04:32:48.418Z,0
2017-09-19T04:33:28.986Z,0
2017-09-19T04:34:09.565Z,0
2017-09-19T04:34:50.142Z,0
2017-09-19T04:35:30.730Z,0
2017-09-19T04:36:11.300Z,0
2017-09-19T04:36:51.879Z,0
2017-09-19T04:37:32.458Z,0
2017-09-19T04:38:13.038Z,0
2017-09-19T04:38:53.621Z,0
2017-09-19T04:39:34.196Z,0
2017-09-19T04:40:14.777Z,0
2017-09-19T04:40:55.355Z,0
2017-09-19T04:41:35.935Z,0
2017-09-19T04:42:16.511Z,0
2017-09-19T04:42:57.083Z,0
2017-09-19T04:43:37.667Z,0
2017-09-19T04:44:18.246Z,0
2017-09-19T04:44:58.822Z,0
2017-09-19T04:45:39.409Z,0
2017-09-19T04:46:19.989Z,0
2017-09-19T04:47:00.563Z,0
2017-09-19T04:47:41.145Z,0
2017-09-19T04:48:21.736Z,0
2017-09-19T04:49:02.304Z,0
2017-09-19T04:49:42.871Z,0
2017-09-19T04:50:23.465Z,0
2017-09-19T04:51:04.044Z,0
2017-09-19T04:51:44.623Z,5
2017-09-19T04:52:25.200Z,5
2017-09-19T04:53:05.774Z,5
2017-09-19T04:53:46.348Z,5
2017-09-19T04:54:26.923Z,5
2017-09-19T04:55:07.502Z,5
2017-09-19T04:55:48.082Z,5
2017-09-19T04:56:28.658Z,5
2017-09-19T04:57:09.225Z,5
2017-09-19T04:57:49.804Z,10
2017-09-19T04:58:30.387Z,10
2017-09-19T04:59:10.966Z,10
2017-09-19T04:59:51.537Z,10
2017-09-19T05:00:32.112Z,10
2017-09-19T05:01:12.691Z,10
2017-09-19T05:01:53.267Z,15
2017-09-19T05:02:33.844Z,15
2017-09-19T05:03:14.421Z,15
2017-09-19T05:03:55.003Z,15
2017-09-19T05:04:35.575Z,20
2017-09-19T05:05:16.148Z,20
2017-09-19T05:05:56.728Z,20
2017-09-19T05:06:37.305Z,20
2017-09-19T05:07:17.891Z,25
2017-09-19T05:07:58.454Z,25
2017-09-19T05:08:39.044Z,25
2017-09-19T05:09:19.614Z,30
2017-09-19T05:10:00.198Z,30
2017-09-19T05:10:40.780Z,30
2017-09-19T05:11:21.360Z,35
2017-09-19T05:12:01.929Z,35
2017-09-19T05:12:42.510Z,40
2017-09-19T05:13:23.090Z,40
2017-09-19T05:14:03.670Z,45
2017-09-19T05:14:44.247Z,45
2017-09-19T05:15:24.821Z,50
2017-09-19T05:16:05.413Z,50
2017-09-19T05:16:45.984Z,55
2017-09-19T05:17:26.556Z,55
2017-09-19T05:18:07.134Z,60
2017-09-19T05:18:47.707Z,60
2017-09-19T05:19:28.282Z,60
2017-09-19T05:20:08.860Z,65
2017-09-19T05:20:49.441Z,65
2017-09-19T05:21:30.014Z,65
2017-09-19T05:22:10.588Z,65
2017-09-19T05:22:51.201Z,65
2017-09-19T05:23:31.743Z,65
2017-09-19T05:24:12.328Z,70
2017-09-19T05:24:53.435Z,70
2017-09-19T05:25:33.996Z,70
2017-09-19T05:26:14.578Z,70
2017-09-19T05:26:55.156Z,75
2017-09-19T05:27:35.730Z,75
2017-09-19T05:28:16.314Z,75
2017-09-19T05:28:56.895Z,75
2017-09-19T05:29:37.481Z,75
2017-09-19T05:30:18.041Z,75
2017-09-19T05:30:58.621Z,80
2017-09-19T05:31:39.201Z,80
2017-09-19T05:32:19.784Z,80
2017-09-19T05:33:00.358Z,80
2017-09-19T05:33:40.922Z,80
2017-09-19T05:34:21.503Z,80
2017-09-19T05:35:02.082Z,85
2017-09-19T05:35:42.658Z,85
2017-09-19T05:36:23.241Z,85
2017-09-19T05:37:03.820Z,85
2017-09-19T05:37:44.404Z,90
2017-09-19T05:38:24.978Z,90
2017-09-19T05:39:05.555Z,90
2017-09-19T05:39:46.137Z,90
2017-09-19T05:40:26.712Z,95
2017-09-19T05:41:07.284Z,95
2017-09-19T05:41:47.865Z,95
2017-09-19T05:42:28.445Z,100
2017-09-19T05:43:09.017Z,100
2017-09-19T05:43:49.598Z,100
2017-09-19T05:44:30.172Z,105
2017-09-19T05:45:10.753Z,105
2017-09-19T05:45:51.324Z,105
2017-09-19T05:46:31.893Z,110
2017-09-19T05:47:12.477Z,110
2017-09-19T05:47:53.060Z,110
2017-09-19T05:48:33.638Z,110
2017-09-19T05:49:14.222Z,115
2017-09-19T05:49:54.797Z,115
2017-09-19T05:50:35.369Z,115
2017-09-19T05:51:15.947Z,115
2017-09-19T05:51:56.523Z,115
2017-09-19T05:52:37.113Z,115
2017-09-19T05:53:17.694Z,120
2017-09-19T05:53:58.270Z,120
2017-09-19T05:54:38.851Z,120
2017-09-19T05:55:19.429Z,120
2017-09-19T05:56:00.009Z,125
2017-09-19T05:56:40.585Z,125
2017-09-19T05:57:21.173Z,130
2017-09-19T05:58:01.740Z,130
2017-09-19T05:58:42.312Z,130
2017-09-19T05:59:22.893Z,130
2017-09-19T06:00:03.470Z,130
2017-09-19T06:00:44.046Z,130
2017-09-19T06:01:24.624Z,130
2017-09-19T06:02:05.212Z,130
2017-09-19T06:02:45.780Z,130
2017-09-19T06:03:26.372Z,130
2017-09-19T06:04:06.947Z,125
2017-09-19T06:06:24.914Z,100
2017-09-19T06:07:05.489Z,100
2017-09-19T06:07:46.052Z,100
2017-09-19T06:08:26.630Z,105
2017-09-19T06:09:07.205Z,105
2017-09-19T06:09:47.784Z,110
2017-09-19T06:10:28.361Z,115
2017-09-19T06:11:08.926Z,125
2017-09-19T06:11:49.514Z,130
2017-09-19T06:12:30.083Z,130
2017-09-19T06:13:10.666Z,140
2017-09-19T06:13:51.251Z,140
2017-09-19T06:14:31.827Z,145
2017-09-19T06:15:12.404Z,145
2017-09-19T06:15:52.989Z,145
2017-09-19T06:16:33.564Z,150
2017-09-19T06:17:14.143Z,150
2017-09-19T06:17:54.721Z,155
2017-09-19T06:18:35.303Z,160
2017-09-19T06:19:15.870Z,165
2017-09-19T06:19:56.453Z,170
2017-09-19T06:20:37.037Z,170
2017-09-19T06:21:17.613Z,175
2017-09-19T06:21:58.189Z,175
2017-09-19T06:22:38.768Z,180
2017-09-19T06:23:19.349Z,185
2017-09-19T06:23:59.927Z,190
2017-09-19T06:24:40.507Z,200
2017-09-19T06:25:21.086Z,200
2017-09-19T06:26:01.651Z,210
2017-09-19T06:26:42.224Z,205
2017-09-19T06:27:22.810Z,205
2017-09-19T06:28:03.376Z,200
2017-09-19T06:28:43.963Z,205
2017-09-19T06:29:24.528Z,210
2017-09-19T06:30:05.106Z,210
2017-09-19T06:30:45.683Z,215
2017-09-19T06:31:26.265Z,220
2017-09-19T06:32:06.831Z,220
2017-09-19T06:32:47.410Z,220
2017-09-19T06:33:27.995Z,220
2017-09-19T06:34:08.567Z,220
2017-09-19T06:34:49.148Z,220
2017-09-19T06:35:29.724Z,225
2017-09-19T06:36:10.315Z,230
2017-09-19T06:36:50.896Z,240
2017-09-19T06:37:31.480Z,255
2017-09-19T06:38:12.060Z,255
2017-09-19T06:38:52.638Z,265
2017-09-19T06:39:33.218Z,280
2017-09-19T06:40:13.797Z,290
2017-09-19T06:40:54.375Z,300
2017-09-19T06:41:34.955Z,305
2017-09-19T06:42:15.525Z,315
2017-09-19T06:42:56.109Z,320
2017-09-19T06:43:36.685Z,330
2017-09-19T06:44:17.256Z,335
2017-09-19T06:44:57.841Z,335
2017-09-19T06:45:38.420Z,335
2017-09-19T06:46:18.996Z,335
2017-09-19T06:46:59.573Z,335
2017-09-19T06:47:40.153Z,335
2017-09-19T06:48:20.732Z,335
2017-09-19T06:49:01.312Z,335
2017-09-19T06:49:41.893Z,330
2017-09-19T06:50:22.474Z,330
2017-09-19T06:51:03.049Z,325
2017-09-19T06:51:43.625Z,315
2017-09-19T06:52:24.214Z,305
2017-09-19T06:53:04.785Z,290
2017-09-19T06:53:46.809Z,280
2017-09-19T06:54:27.428Z,275
2017-09-19T06:55:08.003Z,275
2017-09-19T06:55:48.583Z,270
2017-09-19T06:56:29.164Z,265
2017-09-19T06:57:09.742Z,260
2017-09-19T06:57:50.326Z,255
2017-09-19T06:58:30.910Z,255
2017-09-19T06:59:11.497Z,255
2017-09-19T06:59:52.081Z,255
2017-09-19T07:00:32.658Z,260
2017-09-19T07:01:17.115Z,260
2017-09-19T07:01:57.529Z,260
2017-09-19T07:02:38.117Z,255
2017-09-19T07:03:18.696Z,250
2017-09-19T07:03:59.282Z,250
2017-09-19T07:04:39.868Z,255
2017-09-19T07:05:20.441Z,260
2017-09-19T07:06:01.032Z,265
2017-09-19T07:06:41.607Z,275
2017-09-19T07:07:22.194Z,290
2017-09-19T07:08:02.773Z,300
2017-09-19T07:08:43.351Z,305
2017-09-19T07:09:23.919Z,315
2017-09-19T07:10:04.500Z,325
2017-09-19T07:10:45.084Z,340
2017-09-19T07:11:25.667Z,345
2017-09-19T07:12:06.235Z,355
2017-09-19T07:12:46.811Z,370
2017-09-19T07:13:27.390Z,380
2017-09-19T07:14:07.966Z,395
2017-09-19T07:14:48.559Z,415
2017-09-19T07:15:29.150Z,425
2017-09-19T07:16:09.739Z,435
2017-09-19T07:16:50.314Z,445
2017-09-19T07:17:30.897Z,455
2017-09-19T07:18:11.481Z,460
2017-09-19T07:18:52.062Z,460
2017-09-19T07:19:32.638Z,465
2017-09-19T07:20:13.226Z,465
2017-09-19T07:20:53.806Z,465
2017-09-19T07:21:34.393Z,465
2017-09-19T07:22:14.962Z,465
2017-09-19T07:22:55.549Z,465
2017-09-19T07:23:36.129Z,465
2017-09-19T07:24:16.704Z,470
2017-09-19T07:24:57.289Z,470
2017-09-19T07:25:37.873Z,480
2017-09-19T07:26:18.452Z,480
2017-09-19T07:26:59.030Z,485
2017-09-19T07:27:39.626Z,485
2017-09-19T07:28:20.190Z,490
2017-09-19T07:29:00.780Z,485
2017-09-19T07:29:41.358Z,485
2017-09-19T07:30:21.947Z,495
2017-09-19T07:31:02.528Z,495
2017-09-19T07:31:43.107Z,490
2017-09-19T07:32:23.700Z,480
2017-09-19T07:33:04.286Z,475
2017-09-19T07:33:44.882Z,480
2017-09-19T07:34:25.457Z,480
2017-09-19T07:35:06.040Z,465
2017-09-19T07:35:46.633Z,455
2017-09-19T07:36:27.212Z,435
2017-09-19T07:37:07.795Z,415
2017-09-19T07:37:48.373Z,405
2017-09-19T07:38:28.954Z,405
2017-09-19T07:39:09.530Z,410
2017-09-19T07:39:50.110Z,420
2017-09-19T07:40:30.694Z,425
2017-09-19T07:41:11.265Z,435
2017-09-19T07:41:51.839Z,445
2017-09-19T07:42:32.413Z,455
2017-09-19T07:43:13.006Z,460
2017-09-19T07:43:53.577Z,465
2017-09-19T07:44:34.164Z,445
2017-09-19T07:45:14.745Z,430
2017-09-19T07:45:55.327Z,410
2017-09-19T07:46:35.916Z,400
2017-09-19T07:47:16.489Z,395
2017-09-19T07:47:57.053Z,375
2017-09-19T07:48:37.642Z,375
2017-09-19T07:49:18.223Z,370
2017-09-19T07:49:58.806Z,375
2017-09-19T07:50:39.374Z,380
2017-09-19T07:51:19.957Z,385
2017-09-19T07:52:00.540Z,390
2017-09-19T07:52:41.120Z,390
2017-09-19T07:53:21.705Z,390
2017-09-19T07:54:02.291Z,385
2017-09-19T07:54:42.874Z,385
2017-09-19T07:55:23.453Z,380
2017-09-19T07:56:04.038Z,365
2017-09-19T07:56:44.613Z,345
2017-09-19T07:57:25.200Z,335
2017-09-19T07:58:05.779Z,315
2017-09-19T07:58:46.355Z,300
2017-09-19T07:59:26.939Z,295
2017-09-19T08:00:07.514Z,290
2017-09-19T08:00:48.090Z,295
2017-09-19T08:01:28.673Z,305
2017-09-19T08:02:09.255Z,320
2017-09-19T08:02:49.838Z,330
2017-09-19T08:03:30.419Z,345
2017-09-19T08:04:10.997Z,360
2017-09-19T08:04:51.585Z,370
2017-09-19T08:05:32.169Z,385
2017-09-19T08:06:12.756Z,390
2017-09-19T08:06:53.337Z,400
2017-09-19T08:07:33.918Z,410
2017-09-19T08:08:14.505Z,420
2017-09-19T08:08:55.084Z,435
2017-09-19T08:09:35.664Z,445
2017-09-19T08:10:16.251Z,455
2017-09-19T08:10:56.829Z,465
2017-09-19T08:11:37.412Z,475
2017-09-19T08:12:17.995Z,485
2017-09-19T08:12:58.576Z,495
2017-09-19T08:13:39.161Z,500
2017-09-19T08:14:21.673Z,510
2017-09-19T08:15:08.031Z,515
2017-09-19T08:15:48.576Z,520
2017-09-19T08:16:29.182Z,535
2017-09-19T08:17:09.752Z,550
2017-09-19T08:17:50.321Z,560
2017-09-19T08:18:30.918Z,575
2017-09-19T08:19:11.483Z,590
2017-09-19T08:19:52.049Z,605
2017-09-19T08:20:32.631Z,615
2017-09-19T08:21:13.194Z,630
2017-09-19T08:21:53.747Z,640
2017-09-19T08:22:34.309Z,655
2017-09-19T08:23:14.894Z,670
2017-09-19T08:23:55.446Z,675
2017-09-19T08:24:36.015Z,675
2017-09-19T08:25:16.608Z,665
2017-09-19T08:25:57.174Z,655
2017-09-19T08:26:37.735Z,660
2017-09-19T08:27:18.316Z,670
2017-09-19T08:27:58.890Z,685
2017-09-19T08:30:32.894Z,685
2017-09-19T08:31:13.467Z,690
2017-09-19T08:31:54.051Z,695
2017-09-19T08:32:34.628Z,700
2017-09-19T08:33:15.207Z,695
2017-09-19T08:33:55.791Z,685
2017-09-19T08:34:36.373Z,675
2017-09-19T08:35:16.937Z,670
2017-09-19T08:35:57.527Z,670
2017-09-19T08:36:38.108Z,680
2017-09-19T08:37:18.681Z,690
2017-09-19T08:37:59.298Z,690
2017-09-19T08:38:39.887Z,695
2017-09-19T08:39:20.457Z,705
2017-09-19T08:40:01.018Z,720
2017-09-19T08:40:41.623Z,725
2017-09-19T08:41:22.221Z,715
2017-09-19T08:42:02.810Z,695
2017-09-19T08:42:43.394Z,660
2017-09-19T08:43:23.981Z,615
2017-09-19T08:44:04.566Z,590
2017-09-19T08:44:45.154Z,585
2017-09-19T08:45:25.725Z,610
2017-09-19T08:48:04.028Z,660
2017-09-19T08:48:44.619Z,640
2017-09-19T08:49:25.217Z,590
2017-09-19T08:50:05.796Z,540
2017-09-19T08:50:46.359Z,525
2017-09-19T08:51:26.938Z,530
2017-09-19T08:52:08.340Z,575
2017-09-19T08:52:49.445Z,635
2017-09-19T08:53:30.031Z,715
2017-09-19T08:54:10.621Z,825
2017-09-19T08:54:51.189Z,980
2017-09-19T08:55:31.764Z,1175
2017-09-19T08:56:12.348Z,1435
2017-09-19T08:56:52.922Z,1820
2017-09-19T08:57:34.300Z,1710
2017-09-19T08:58:14.875Z,1570
2017-09-19T08:58:55.467Z,1525
2017-09-19T08:59:36.040Z,1710
2017-09-19T09:00:16.634Z,1770
2017-09-19T09:00:57.195Z,1810
2017-09-19T09:01:37.782Z,1775
2017-09-19T09:02:18.347Z,1635
2017-09-19T09:02:58.924Z,1490
2017-09-19T09:03:39.521Z,1520
2017-09-19T09:04:20.099Z,1615
2017-09-19T09:05:00.673Z,1555
2017-09-19T09:05:42.057Z,1525
2017-09-19T09:06:22.644Z,1440
2017-09-19T09:07:03.229Z,1370
2017-09-19T09:07:43.807Z,1290
2017-09-19T09:08:24.406Z,1235
2017-09-19T09:09:04.994Z,1210
2017-09-19T09:09:45.570Z,1170
2017-09-19T09:10:26.142Z,1050
2017-09-19T09:11:06.751Z,1060
2017-09-19T09:11:47.296Z,1145
2017-09-19T09:12:27.893Z,1100
2017-09-19T09:13:08.479Z,1065
2017-09-19T09:13:49.091Z,980
2017-09-19T09:14:29.659Z,810
2017-09-19T09:15:10.257Z,795
2017-09-19T09:15:50.846Z,605
2017-09-19T09:16:31.420Z,540
2017-09-19T09:17:12.008Z,530
2017-09-19T09:17:52.585Z,540
2017-09-19T09:18:33.180Z,560
2017-09-19T09:19:14.341Z,590
2017-09-19T09:19:54.935Z,620
2017-09-19T09:20:35.530Z,640
2017-09-19T09:21:16.099Z,645
2017-09-19T09:21:56.674Z,630
2017-09-19T09:22:37.240Z,610
2017-09-19T09:23:17.797Z,590
2017-09-19T09:23:58.380Z,575
2017-09-19T09:24:38.958Z,550
2017-09-19T09:25:19.535Z,530
2017-09-19T09:26:00.144Z,515
2017-09-19T09:26:40.726Z,500
2017-09-19T09:27:21.969Z,490
2017-09-19T09:28:02.547Z,480
2017-09-19T09:28:43.842Z,470
2017-09-19T09:29:24.405Z,455
2017-09-19T09:30:04.989Z,450
2017-09-19T09:30:45.563Z,435
2017-09-19T09:31:26.111Z,425
2017-09-19T09:32:06.683Z,425
2017-09-19T09:32:47.250Z,435
2017-09-19T09:33:28.449Z,450
2017-09-19T09:34:09.022Z,470
2017-09-19T09:34:49.595Z,490
2017-09-19T09:35:30.141Z,510
2017-09-19T09:36:10.706Z,510
2017-09-19T09:36:51.274Z,510
2017-09-19T09:37:31.815Z,515
2017-09-19T09:38:12.395Z,515
2017-09-19T09:38:52.976Z,520
2017-09-19T09:39:33.536Z,520
2017-09-19T09:40:14.118Z,535
2017-09-19T09:40:54.693Z,555
2017-09-19T09:41:35.228Z,575
2017-09-19T09:42:16.295Z,595
2017-09-19T09:42:56.832Z,615
2017-09-19T09:43:37.412Z,645
2017-09-19T09:44:17.990Z,680
2017-09-19T09:44:58.575Z,700
2017-09-19T09:45:39.142Z,735
2017-09-19T09:46:19.720Z,760
2017-09-19T09:47:00.277Z,780
2017-09-19T09:47:40.858Z,790
2017-09-19T09:48:21.447Z,795
2017-09-19T09:49:01.987Z,790